sensor_id;sensor_type;location;lat;lon;timestamp;P1;durP1;ratioP1;P2;durP2;ratioP2
66353;SDS011;53150;48.296;16.452;2022-12-22T00:01:10;38.05;;;16.63;;
66353;SDS011;53150;48.296;16.452;2022-12-22T00:03:56;41.95;;;16.17;;
66353;SDS011;53150;48.296;16.452;2022-12-22T00:06:40;34.78;;;14.32;;
66353;SDS011;53150;48.296;16.452;2022-12-22T00:09:25;29.08;;;13.00;;
66353;SDS011;53150;48.296;16.452;2022-12-22T00:12:11;33.05;;;12.85;;
66353;SDS011;53150;48.296;16.452;2022-12-22T00:14:56;28.35;;;12.82;;
66353;SDS011;53150;48.296;16.452;2022-12-22T00:17:42;32.97;;;12.68;;
66353;SDS011;53150;48.296;16.452;2022-12-22T00:20:26;33.75;;;14.60;;
66353;SDS011;53150;48.296;16.452;2022-12-22T00:23:11;26.95;;;14.70;;
66353;SDS011;53150;48.296;16.452;2022-12-22T00:25:56;31.20;;;12.82;;
66353;SDS011;53150;48.296;16.452;2022-12-22T00:28:41;35.47;;;15.30;;
66353;SDS011;53150;48.296;16.452;2022-12-22T00:31:26;30.52;;;13.27;;
66353;SDS011;53150;48.296;16.452;2022-12-22T00:34:14;29.88;;;13.65;;
66353;SDS011;53150;48.296;16.452;2022-12-22T00:37:00;28.92;;;13.30;;
66353;SDS011;53150;48.296;16.452;2022-12-22T00:39:45;29.88;;;15.18;;
66353;SDS011;53150;48.296;16.452;2022-12-22T00:42:30;35.80;;;13.73;;
66353;SDS011;53150;48.296;16.452;2022-12-22T00:45:15;29.17;;;13.15;;
66353;SDS011;53150;48.296;16.452;2022-12-22T00:47:59;32.13;;;13.40;;
66353;SDS011;53150;48.296;16.452;2022-12-22T00:50:44;28.33;;;13.23;;
66353;SDS011;53150;48.296;16.452;2022-12-22T00:53:29;42.47;;;14.88;;
66353;SDS011;53150;48.296;16.452;2022-12-22T00:56:14;33.15;;;13.15;;
66353;SDS011;53150;48.296;16.452;2022-12-22T00:58:59;28.50;;;11.93;;
66353;SDS011;53150;48.296;16.452;2022-12-22T01:01:44;32.97;;;13.70;;
66353;SDS011;53150;48.296;16.452;2022-12-22T01:04:29;33.60;;;13.45;;
66353;SDS011;53150;48.296;16.452;2022-12-22T01:07:14;29.52;;;12.48;;
66353;SDS011;53150;48.296;16.452;2022-12-22T01:10:00;33.58;;;12.75;;
66353;SDS011;53150;48.296;16.452;2022-12-22T01:12:44;34.25;;;12.85;;
66353;SDS011;53150;48.296;16.452;2022-12-22T01:15:29;27.05;;;12.52;;
66353;SDS011;53150;48.296;16.452;2022-12-22T01:18:14;30.25;;;12.60;;
66353;SDS011;53150;48.296;16.452;2022-12-22T01:20:59;30.08;;;11.93;;
66353;SDS011;53150;48.296;16.452;2022-12-22T01:23:44;33.25;;;12.93;;
66353;SDS011;53150;48.296;16.452;2022-12-22T01:26:29;32.03;;;14.73;;
66353;SDS011;53150;48.296;16.452;2022-12-22T01:29:14;23.80;;;11.93;;
66353;SDS011;53150;48.296;16.452;2022-12-22T01:31:58;33.45;;;13.57;;
66353;SDS011;53150;48.296;16.452;2022-12-22T01:34:43;36.42;;;14.35;;
66353;SDS011;53150;48.296;16.452;2022-12-22T01:37:28;33.00;;;12.48;;
66353;SDS011;53150;48.296;16.452;2022-12-22T01:40:17;26.33;;;12.27;;
66353;SDS011;53150;48.296;16.452;2022-12-22T01:43:01;34.00;;;14.23;;
66353;SDS011;53150;48.296;16.452;2022-12-22T01:45:46;33.45;;;13.73;;
66353;SDS011;53150;48.296;16.452;2022-12-22T01:48:31;35.72;;;14.95;;
66353;SDS011;53150;48.296;16.452;2022-12-22T01:51:23;30.58;;;13.07;;
66353;SDS011;53150;48.296;16.452;2022-12-22T01:54:09;32.20;;;14.00;;
66353;SDS011;53150;48.296;16.452;2022-12-22T01:56:54;30.73;;;14.13;;
66353;SDS011;53150;48.296;16.452;2022-12-22T01:59:39;32.83;;;14.48;;
66353;SDS011;53150;48.296;16.452;2022-12-22T02:02:24;31.42;;;14.23;;
66353;SDS011;53150;48.296;16.452;2022-12-22T02:05:09;33.60;;;14.80;;
66353;SDS011;53150;48.296;16.452;2022-12-22T02:16:44;29.35;;;13.73;;
66353;SDS011;53150;48.296;16.452;2022-12-22T02:22:27;35.28;;;14.45;;
66353;SDS011;53150;48.296;16.452;2022-12-22T02:25:21;33.83;;;14.25;;
66353;SDS011;53150;48.296;16.452;2022-12-22T02:28:07;34.42;;;13.18;;
66353;SDS011;53150;48.296;16.452;2022-12-22T02:30:52;34.35;;;14.82;;
66353;SDS011;53150;48.296;16.452;2022-12-22T02:33:36;28.33;;;13.32;;
66353;SDS011;53150;48.296;16.452;2022-12-22T02:36:43;36.08;;;15.15;;
66353;SDS011;53150;48.296;16.452;2022-12-22T02:42:34;29.85;;;12.30;;
66353;SDS011;53150;48.296;16.452;2022-12-22T02:48:26;29.15;;;13.45;;
66353;SDS011;53150;48.296;16.452;2022-12-22T02:51:16;29.73;;;13.32;;
66353;SDS011;53150;48.296;16.452;2022-12-22T02:54:00;30.63;;;13.75;;
66353;SDS011;53150;48.296;16.452;2022-12-22T02:56:46;29.08;;;13.77;;
66353;SDS011;53150;48.296;16.452;2022-12-22T02:59:31;32.72;;;14.35;;
66353;SDS011;53150;48.296;16.452;2022-12-22T03:02:16;35.65;;;13.43;;
66353;SDS011;53150;48.296;16.452;2022-12-22T03:05:00;30.80;;;13.18;;
66353;SDS011;53150;48.296;16.452;2022-12-22T03:07:45;32.35;;;13.18;;
66353;SDS011;53150;48.296;16.452;2022-12-22T03:10:29;40.72;;;14.18;;
66353;SDS011;53150;48.296;16.452;2022-12-22T03:13:14;35.55;;;13.50;;
66353;SDS011;53150;48.296;16.452;2022-12-22T03:15:58;32.83;;;14.90;;
66353;SDS011;53150;48.296;16.452;2022-12-22T03:18:43;30.83;;;13.43;;
66353;SDS011;53150;48.296;16.452;2022-12-22T03:21:27;31.30;;;13.13;;
66353;SDS011;53150;48.296;16.452;2022-12-22T03:24:12;33.88;;;13.52;;
66353;SDS011;53150;48.296;16.452;2022-12-22T03:26:57;35.40;;;14.32;;
66353;SDS011;53150;48.296;16.452;2022-12-22T03:29:23;36.80;;;14.30;;
66353;SDS011;53150;48.296;16.452;2022-12-22T03:31:49;42.13;;;15.85;;
66353;SDS011;53150;48.296;16.452;2022-12-22T03:34:15;38.85;;;14.35;;
66353;SDS011;53150;48.296;16.452;2022-12-22T03:36:41;35.97;;;15.30;;
66353;SDS011;53150;48.296;16.452;2022-12-22T03:39:07;51.65;;;16.52;;
66353;SDS011;53150;48.296;16.452;2022-12-22T03:41:34;33.75;;;13.48;;
66353;SDS011;53150;48.296;16.452;2022-12-22T03:44:18;43.75;;;17.10;;
66353;SDS011;53150;48.296;16.452;2022-12-22T03:47:03;38.17;;;15.00;;
66353;SDS011;53150;48.296;16.452;2022-12-22T03:49:29;43.45;;;15.75;;
66353;SDS011;53150;48.296;16.452;2022-12-22T03:51:55;33.67;;;14.25;;
66353;SDS011;53150;48.296;16.452;2022-12-22T03:54:22;36.03;;;16.02;;
66353;SDS011;53150;48.296;16.452;2022-12-22T03:56:49;43.58;;;16.52;;
66353;SDS011;53150;48.296;16.452;2022-12-22T03:59:15;36.63;;;15.25;;
66353;SDS011;53150;48.296;16.452;2022-12-22T04:01:43;41.33;;;15.18;;
66353;SDS011;53150;48.296;16.452;2022-12-22T04:04:09;47.33;;;15.25;;
66353;SDS011;53150;48.296;16.452;2022-12-22T04:06:35;46.42;;;18.77;;
66353;SDS011;53150;48.296;16.452;2022-12-22T04:09:02;49.20;;;16.23;;
66353;SDS011;53150;48.296;16.452;2022-12-22T04:11:28;39.90;;;16.02;;
66353;SDS011;53150;48.296;16.452;2022-12-22T04:14:13;47.22;;;16.60;;
66353;SDS011;53150;48.296;16.452;2022-12-22T04:16:39;33.20;;;15.90;;
66353;SDS011;53150;48.296;16.452;2022-12-22T04:19:05;38.60;;;16.23;;
66353;SDS011;53150;48.296;16.452;2022-12-22T04:21:32;54.80;;;17.67;;
66353;SDS011;53150;48.296;16.452;2022-12-22T04:23:58;48.35;;;15.35;;
66353;SDS011;53150;48.296;16.452;2022-12-22T04:26:24;44.10;;;16.60;;
66353;SDS011;53150;48.296;16.452;2022-12-22T04:28:50;39.42;;;16.58;;
66353;SDS011;53150;48.296;16.452;2022-12-22T04:31:17;52.58;;;20.00;;
66353;SDS011;53150;48.296;16.452;2022-12-22T04:33:43;48.22;;;17.67;;
66353;SDS011;53150;48.296;16.452;2022-12-22T04:36:09;44.58;;;17.30;;
66353;SDS011;53150;48.296;16.452;2022-12-22T04:38:36;48.40;;;17.00;;
66353;SDS011;53150;48.296;16.452;2022-12-22T04:41:02;47.75;;;16.13;;
66353;SDS011;53150;48.296;16.452;2022-12-22T04:43:28;50.70;;;16.95;;
66353;SDS011;53150;48.296;16.452;2022-12-22T04:45:55;48.53;;;17.70;;
66353;SDS011;53150;48.296;16.452;2022-12-22T04:48:22;48.08;;;16.02;;
66353;SDS011;53150;48.296;16.452;2022-12-22T04:50:52;38.08;;;16.48;;
66353;SDS011;53150;48.296;16.452;2022-12-22T04:53:18;44.22;;;16.83;;
66353;SDS011;53150;48.296;16.452;2022-12-22T04:55:45;47.13;;;19.67;;
66353;SDS011;53150;48.296;16.452;2022-12-22T04:58:11;40.15;;;16.23;;
66353;SDS011;53150;48.296;16.452;2022-12-22T05:00:37;43.58;;;16.30;;
66353;SDS011;53150;48.296;16.452;2022-12-22T05:03:03;38.45;;;15.68;;
66353;SDS011;53150;48.296;16.452;2022-12-22T05:05:29;39.90;;;16.73;;
66353;SDS011;53150;48.296;16.452;2022-12-22T05:07:55;49.28;;;19.02;;
66353;SDS011;53150;48.296;16.452;2022-12-22T05:10:21;46.38;;;15.85;;
66353;SDS011;53150;48.296;16.452;2022-12-22T05:12:47;48.65;;;17.58;;
66353;SDS011;53150;48.296;16.452;2022-12-22T05:15:23;49.30;;;15.75;;
66353;SDS011;53150;48.296;16.452;2022-12-22T05:17:50;50.08;;;18.30;;
66353;SDS011;53150;48.296;16.452;2022-12-22T05:20:16;43.42;;;17.20;;
66353;SDS011;53150;48.296;16.452;2022-12-22T05:22:42;44.05;;;16.88;;
66353;SDS011;53150;48.296;16.452;2022-12-22T05:25:09;51.72;;;17.45;;
66353;SDS011;53150;48.296;16.452;2022-12-22T05:27:35;49.00;;;16.50;;
66353;SDS011;53150;48.296;16.452;2022-12-22T05:30:02;50.00;;;18.17;;
66353;SDS011;53150;48.296;16.452;2022-12-22T05:32:28;49.20;;;17.75;;
66353;SDS011;53150;48.296;16.452;2022-12-22T05:34:57;44.72;;;16.02;;
66353;SDS011;53150;48.296;16.452;2022-12-22T05:37:23;42.80;;;18.02;;
66353;SDS011;53150;48.296;16.452;2022-12-22T05:39:49;42.80;;;14.55;;
66353;SDS011;53150;48.296;16.452;2022-12-22T05:42:15;48.88;;;17.20;;
66353;SDS011;53150;48.296;16.452;2022-12-22T05:45:20;48.42;;;16.83;;
66353;SDS011;53150;48.296;16.452;2022-12-22T05:47:47;41.90;;;16.15;;
66353;SDS011;53150;48.296;16.452;2022-12-22T05:50:14;44.75;;;17.70;;
66353;SDS011;53150;48.296;16.452;2022-12-22T05:52:40;41.30;;;15.82;;
66353;SDS011;53150;48.296;16.452;2022-12-22T05:55:06;35.42;;;15.90;;
66353;SDS011;53150;48.296;16.452;2022-12-22T05:57:32;53.35;;;17.33;;
66353;SDS011;53150;48.296;16.452;2022-12-22T05:59:58;43.40;;;17.42;;
66353;SDS011;53150;48.296;16.452;2022-12-22T06:02:24;42.63;;;17.15;;
66353;SDS011;53150;48.296;16.452;2022-12-22T06:04:51;45.17;;;17.38;;
66353;SDS011;53150;48.296;16.452;2022-12-22T06:07:17;50.63;;;19.83;;
66353;SDS011;53150;48.296;16.452;2022-12-22T06:09:43;48.40;;;16.20;;
66353;SDS011;53150;48.296;16.452;2022-12-22T06:12:09;49.17;;;17.30;;
66353;SDS011;53150;48.296;16.452;2022-12-22T06:14:35;50.83;;;16.95;;
66353;SDS011;53150;48.296;16.452;2022-12-22T06:17:01;51.90;;;18.40;;
66353;SDS011;53150;48.296;16.452;2022-12-22T06:19:27;44.83;;;17.33;;
66353;SDS011;53150;48.296;16.452;2022-12-22T06:21:53;46.05;;;17.00;;
66353;SDS011;53150;48.296;16.452;2022-12-22T06:24:19;46.13;;;17.60;;
66353;SDS011;53150;48.296;16.452;2022-12-22T06:26:45;39.63;;;15.82;;
66353;SDS011;53150;48.296;16.452;2022-12-22T06:29:12;53.65;;;17.77;;
66353;SDS011;53150;48.296;16.452;2022-12-22T06:31:38;42.67;;;18.05;;
66353;SDS011;53150;48.296;16.452;2022-12-22T06:34:05;51.88;;;19.55;;
66353;SDS011;53150;48.296;16.452;2022-12-22T06:36:31;36.67;;;17.35;;
66353;SDS011;53150;48.296;16.452;2022-12-22T06:38:58;47.17;;;17.70;;
66353;SDS011;53150;48.296;16.452;2022-12-22T06:41:24;47.80;;;17.17;;
66353;SDS011;53150;48.296;16.452;2022-12-22T06:44:09;44.75;;;16.98;;
66353;SDS011;53150;48.296;16.452;2022-12-22T06:46:35;47.70;;;18.52;;
66353;SDS011;53150;48.296;16.452;2022-12-22T06:49:01;44.17;;;18.45;;
66353;SDS011;53150;48.296;16.452;2022-12-22T06:51:27;53.53;;;20.58;;
66353;SDS011;53150;48.296;16.452;2022-12-22T06:53:53;53.55;;;20.20;;
66353;SDS011;53150;48.296;16.452;2022-12-22T06:56:19;56.45;;;21.52;;
66353;SDS011;53150;48.296;16.452;2022-12-22T06:58:45;54.72;;;20.88;;
66353;SDS011;53150;48.296;16.452;2022-12-22T07:01:11;49.78;;;18.67;;
66353;SDS011;53150;48.296;16.452;2022-12-22T07:03:37;39.33;;;16.25;;
66353;SDS011;53150;48.296;16.452;2022-12-22T07:06:03;42.58;;;17.48;;
66353;SDS011;53150;48.296;16.452;2022-12-22T07:08:29;47.38;;;16.27;;
66353;SDS011;53150;48.296;16.452;2022-12-22T07:10:55;49.58;;;18.08;;
66353;SDS011;53150;48.296;16.452;2022-12-22T07:13:25;40.92;;;18.95;;
66353;SDS011;53150;48.296;16.452;2022-12-22T07:15:52;39.35;;;16.30;;
66353;SDS011;53150;48.296;16.452;2022-12-22T07:18:18;45.33;;;18.42;;
66353;SDS011;53150;48.296;16.452;2022-12-22T07:20:44;52.00;;;19.20;;
66353;SDS011;53150;48.296;16.452;2022-12-22T07:23:10;37.45;;;16.15;;
66353;SDS011;53150;48.296;16.452;2022-12-22T07:25:37;44.25;;;16.80;;
66353;SDS011;53150;48.296;16.452;2022-12-22T07:28:04;48.63;;;17.48;;
66353;SDS011;53150;48.296;16.452;2022-12-22T07:30:30;44.95;;;18.33;;
66353;SDS011;53150;48.296;16.452;2022-12-22T07:32:56;52.85;;;21.77;;
66353;SDS011;53150;48.296;16.452;2022-12-22T07:35:22;51.28;;;18.40;;
66353;SDS011;53150;48.296;16.452;2022-12-22T07:37:48;49.35;;;21.75;;
66353;SDS011;53150;48.296;16.452;2022-12-22T07:40:15;44.42;;;16.88;;
66353;SDS011;53150;48.296;16.452;2022-12-22T07:42:41;49.33;;;19.80;;
66353;SDS011;53150;48.296;16.452;2022-12-22T07:45:13;60.00;;;20.83;;
66353;SDS011;53150;48.296;16.452;2022-12-22T07:47:39;50.85;;;20.38;;
66353;SDS011;53150;48.296;16.452;2022-12-22T07:50:06;55.92;;;17.60;;
66353;SDS011;53150;48.296;16.452;2022-12-22T07:52:56;49.58;;;20.63;;
66353;SDS011;53150;48.296;16.452;2022-12-22T07:57:48;35.53;;;15.48;;
66353;SDS011;53150;48.296;16.452;2022-12-22T08:00:14;45.28;;;16.08;;
66353;SDS011;53150;48.296;16.452;2022-12-22T08:02:40;44.05;;;18.25;;
66353;SDS011;53150;48.296;16.452;2022-12-22T08:05:07;42.00;;;18.80;;
66353;SDS011;53150;48.296;16.452;2022-12-22T08:07:33;44.58;;;17.60;;
66353;SDS011;53150;48.296;16.452;2022-12-22T08:09:59;58.38;;;20.30;;
66353;SDS011;53150;48.296;16.452;2022-12-22T08:12:26;43.22;;;18.00;;
66353;SDS011;53150;48.296;16.452;2022-12-22T08:14:53;43.22;;;18.20;;
66353;SDS011;53150;48.296;16.452;2022-12-22T08:17:19;44.28;;;18.20;;
66353;SDS011;53150;48.296;16.452;2022-12-22T08:19:45;40.85;;;17.05;;
66353;SDS011;53150;48.296;16.452;2022-12-22T08:22:12;41.20;;;17.33;;
66353;SDS011;53150;48.296;16.452;2022-12-22T08:24:38;45.65;;;15.73;;
66353;SDS011;53150;48.296;16.452;2022-12-22T08:27:06;39.13;;;16.77;;
66353;SDS011;53150;48.296;16.452;2022-12-22T08:29:37;37.03;;;16.33;;
66353;SDS011;53150;48.296;16.452;2022-12-22T08:32:04;37.53;;;17.17;;
66353;SDS011;53150;48.296;16.452;2022-12-22T08:34:31;40.33;;;15.90;;
66353;SDS011;53150;48.296;16.452;2022-12-22T08:36:58;38.65;;;17.08;;
66353;SDS011;53150;48.296;16.452;2022-12-22T08:39:26;44.05;;;15.75;;
66353;SDS011;53150;48.296;16.452;2022-12-22T08:41:52;46.78;;;17.38;;
66353;SDS011;53150;48.296;16.452;2022-12-22T08:44:22;51.63;;;18.00;;
66353;SDS011;53150;48.296;16.452;2022-12-22T08:46:49;48.60;;;18.50;;
66353;SDS011;53150;48.296;16.452;2022-12-22T08:49:16;35.60;;;17.33;;
66353;SDS011;53150;48.296;16.452;2022-12-22T08:51:42;51.65;;;18.55;;
66353;SDS011;53150;48.296;16.452;2022-12-22T08:54:08;48.15;;;18.38;;
66353;SDS011;53150;48.296;16.452;2022-12-22T08:56:34;48.60;;;17.08;;
66353;SDS011;53150;48.296;16.452;2022-12-22T08:59:00;44.53;;;17.05;;
66353;SDS011;53150;48.296;16.452;2022-12-22T09:01:30;42.00;;;17.58;;
66353;SDS011;53150;48.296;16.452;2022-12-22T09:03:56;57.22;;;19.10;;
66353;SDS011;53150;48.296;16.452;2022-12-22T09:06:23;46.10;;;17.95;;
66353;SDS011;53150;48.296;16.452;2022-12-22T09:08:56;42.00;;;16.23;;
66353;SDS011;53150;48.296;16.452;2022-12-22T09:13:51;39.17;;;14.90;;
66353;SDS011;53150;48.296;16.452;2022-12-22T09:16:18;40.80;;;15.07;;
66353;SDS011;53150;48.296;16.452;2022-12-22T09:18:44;38.20;;;16.52;;
66353;SDS011;53150;48.296;16.452;2022-12-22T09:21:10;40.45;;;18.10;;
66353;SDS011;53150;48.296;16.452;2022-12-22T09:23:36;42.28;;;17.20;;
66353;SDS011;53150;48.296;16.452;2022-12-22T09:26:09;38.28;;;17.77;;
66353;SDS011;53150;48.296;16.452;2022-12-22T09:31:01;50.00;;;16.98;;
66353;SDS011;53150;48.296;16.452;2022-12-22T09:33:27;42.15;;;17.27;;
66353;SDS011;53150;48.296;16.452;2022-12-22T09:35:53;47.30;;;18.30;;
66353;SDS011;53150;48.296;16.452;2022-12-22T09:38:19;42.22;;;16.98;;
66353;SDS011;53150;48.296;16.452;2022-12-22T09:40:45;40.20;;;16.35;;
66353;SDS011;53150;48.296;16.452;2022-12-22T09:43:13;43.00;;;18.25;;
66353;SDS011;53150;48.296;16.452;2022-12-22T09:45:40;43.38;;;15.70;;
66353;SDS011;53150;48.296;16.452;2022-12-22T09:48:07;47.33;;;17.60;;
66353;SDS011;53150;48.296;16.452;2022-12-22T09:50:35;41.08;;;17.90;;
66353;SDS011;53150;48.296;16.452;2022-12-22T09:53:04;50.10;;;18.98;;
66353;SDS011;53150;48.296;16.452;2022-12-22T09:55:36;41.75;;;18.13;;
66353;SDS011;53150;48.296;16.452;2022-12-22T09:58:03;44.92;;;18.70;;
66353;SDS011;53150;48.296;16.452;2022-12-22T10:00:29;47.03;;;18.75;;
66353;SDS011;53150;48.296;16.452;2022-12-22T10:02:59;53.88;;;20.42;;
66353;SDS011;53150;48.296;16.452;2022-12-22T10:05:31;43.75;;;17.23;;
66353;SDS011;53150;48.296;16.452;2022-12-22T10:08:07;55.53;;;19.70;;
66353;SDS011;53150;48.296;16.452;2022-12-22T10:10:34;43.28;;;17.42;;
66353;SDS011;53150;48.296;16.452;2022-12-22T10:13:01;47.55;;;18.58;;
66353;SDS011;53150;48.296;16.452;2022-12-22T10:15:37;47.05;;;16.52;;
66353;SDS011;53150;48.296;16.452;2022-12-22T10:20:35;47.13;;;16.80;;
66353;SDS011;53150;48.296;16.452;2022-12-22T10:23:11;40.70;;;16.33;;
66353;SDS011;53150;48.296;16.452;2022-12-22T10:25:57;46.90;;;18.20;;
66353;SDS011;53150;48.296;16.452;2022-12-22T10:28:28;42.10;;;16.45;;
66353;SDS011;53150;48.296;16.452;2022-12-22T10:33:52;48.75;;;17.65;;
66353;SDS011;53150;48.296;16.452;2022-12-22T10:39:06;48.90;;;19.42;;
66353;SDS011;53150;48.296;16.452;2022-12-22T10:41:40;48.22;;;19.35;;
66353;SDS011;53150;48.296;16.452;2022-12-22T10:44:18;39.58;;;18.45;;
66353;SDS011;53150;48.296;16.452;2022-12-22T10:46:46;46.92;;;17.85;;
66353;SDS011;53150;48.296;16.452;2022-12-22T10:51:42;41.80;;;19.20;;
66353;SDS011;53150;48.296;16.452;2022-12-22T10:54:09;46.25;;;19.80;;
66353;SDS011;53150;48.296;16.452;2022-12-22T10:56:50;45.08;;;16.77;;
66353;SDS011;53150;48.296;16.452;2022-12-22T10:59:23;36.35;;;18.33;;
66353;SDS011;53150;48.296;16.452;2022-12-22T11:01:49;37.42;;;16.02;;
66353;SDS011;53150;48.296;16.452;2022-12-22T11:06:41;30.00;;;14.32;;
66353;SDS011;53150;48.296;16.452;2022-12-22T11:09:11;34.17;;;15.82;;
66353;SDS011;53150;48.296;16.452;2022-12-22T11:11:56;31.15;;;15.35;;
66353;SDS011;53150;48.296;16.452;2022-12-22T11:14:31;29.77;;;14.65;;
66353;SDS011;53150;48.296;16.452;2022-12-22T11:19:31;29.65;;;14.73;;
66353;SDS011;53150;48.296;16.452;2022-12-22T11:24:39;32.72;;;15.60;;
66353;SDS011;53150;48.296;16.452;2022-12-22T11:37:48;29.75;;;13.95;;
66353;SDS011;53150;48.296;16.452;2022-12-22T11:56:01;37.63;;;14.90;;
66353;SDS011;53150;48.296;16.452;2022-12-22T12:01:07;37.03;;;15.68;;
66353;SDS011;53150;48.296;16.452;2022-12-22T12:06:25;30.83;;;15.38;;
66353;SDS011;53150;48.296;16.452;2022-12-22T12:14:23;37.95;;;18.65;;
66353;SDS011;53150;48.296;16.452;2022-12-22T12:16:54;37.85;;;16.00;;
66353;SDS011;53150;48.296;16.452;2022-12-22T12:22:00;37.22;;;17.35;;
66353;SDS011;53150;48.296;16.452;2022-12-22T12:27:05;36.80;;;17.10;;
66353;SDS011;53150;48.296;16.452;2022-12-22T12:29:48;36.05;;;15.27;;
66353;SDS011;53150;48.296;16.452;2022-12-22T12:32:29;29.20;;;13.93;;
66353;SDS011;53150;48.296;16.452;2022-12-22T12:34:59;34.47;;;16.55;;
66353;SDS011;53150;48.296;16.452;2022-12-22T12:37:28;32.17;;;15.60;;
66353;SDS011;53150;48.296;16.452;2022-12-22T12:40:01;36.45;;;16.83;;
66353;SDS011;53150;48.296;16.452;2022-12-22T12:42:32;32.47;;;15.30;;
66353;SDS011;53150;48.296;16.452;2022-12-22T12:44:59;41.42;;;16.83;;
66353;SDS011;53150;48.296;16.452;2022-12-22T12:52:31;34.88;;;16.33;;
66353;SDS011;53150;48.296;16.452;2022-12-22T12:57:46;42.25;;;15.95;;
66353;SDS011;53150;48.296;16.452;2022-12-22T13:03:11;38.45;;;16.50;;
66353;SDS011;53150;48.296;16.452;2022-12-22T13:05:50;31.25;;;15.52;;
66353;SDS011;53150;48.296;16.452;2022-12-22T13:08:21;31.63;;;13.73;;
66353;SDS011;53150;48.296;16.452;2022-12-22T13:15:52;39.13;;;17.40;;
66353;SDS011;53150;48.296;16.452;2022-12-22T13:18:44;37.17;;;18.25;;
66353;SDS011;53150;48.296;16.452;2022-12-22T13:21:23;37.10;;;19.25;;
66353;SDS011;53150;48.296;16.452;2022-12-22T13:26:26;40.17;;;17.48;;
66353;SDS011;53150;48.296;16.452;2022-12-22T13:28:55;33.17;;;15.10;;
66353;SDS011;53150;48.296;16.452;2022-12-22T13:36:42;36.17;;;17.85;;
66353;SDS011;53150;48.296;16.452;2022-12-22T13:39:12;39.90;;;16.90;;
66353;SDS011;53150;48.296;16.452;2022-12-22T13:41:42;33.28;;;16.92;;
66353;SDS011;53150;48.296;16.452;2022-12-22T13:44:42;41.28;;;19.38;;
66353;SDS011;53150;48.296;16.452;2022-12-22T13:47:11;34.00;;;16.40;;
66353;SDS011;53150;48.296;16.452;2022-12-22T13:49:46;32.72;;;15.57;;
66353;SDS011;53150;48.296;16.452;2022-12-22T13:52:13;37.00;;;16.23;;
66353;SDS011;53150;48.296;16.452;2022-12-22T13:54:41;35.03;;;16.05;;
66353;SDS011;53150;48.296;16.452;2022-12-22T13:57:13;32.97;;;14.40;;
66353;SDS011;53150;48.296;16.452;2022-12-22T13:59:43;29.92;;;15.38;;
66353;SDS011;53150;48.296;16.452;2022-12-22T14:04:37;37.75;;;16.98;;
66353;SDS011;53150;48.296;16.452;2022-12-22T14:07:11;33.97;;;16.83;;
66353;SDS011;53150;48.296;16.452;2022-12-22T14:09:41;33.05;;;19.83;;
66353;SDS011;53150;48.296;16.452;2022-12-22T14:12:10;35.17;;;17.05;;
66353;SDS011;53150;48.296;16.452;2022-12-22T14:14:38;40.50;;;17.17;;
66353;SDS011;53150;48.296;16.452;2022-12-22T14:17:05;35.25;;;16.42;;
66353;SDS011;53150;48.296;16.452;2022-12-22T14:19:40;36.78;;;16.08;;
66353;SDS011;53150;48.296;16.452;2022-12-22T14:22:07;34.22;;;16.52;;
66353;SDS011;53150;48.296;16.452;2022-12-22T14:24:36;31.08;;;14.45;;
66353;SDS011;53150;48.296;16.452;2022-12-22T14:27:10;34.13;;;15.48;;
66353;SDS011;53150;48.296;16.452;2022-12-22T14:29:40;34.45;;;16.27;;
66353;SDS011;53150;48.296;16.452;2022-12-22T14:32:06;32.97;;;16.50;;
66353;SDS011;53150;48.296;16.452;2022-12-22T14:34:33;36.53;;;16.20;;
66353;SDS011;53150;48.296;16.452;2022-12-22T14:37:00;31.48;;;15.77;;
66353;SDS011;53150;48.296;16.452;2022-12-22T14:39:27;30.85;;;14.82;;
66353;SDS011;53150;48.296;16.452;2022-12-22T14:41:55;33.00;;;16.58;;
66353;SDS011;53150;48.296;16.452;2022-12-22T14:47:34;33.10;;;17.08;;
66353;SDS011;53150;48.296;16.452;2022-12-22T14:54:52;29.40;;;15.63;;
66353;SDS011;53150;48.296;16.452;2022-12-22T14:57:22;32.83;;;16.55;;
66353;SDS011;53150;48.296;16.452;2022-12-22T15:00:00;35.28;;;18.55;;
66353;SDS011;53150;48.296;16.452;2022-12-22T15:02:31;32.55;;;16.20;;
66353;SDS011;53150;48.296;16.452;2022-12-22T15:05:12;34.95;;;17.23;;
66353;SDS011;53150;48.296;16.452;2022-12-22T15:07:43;36.75;;;16.45;;
66353;SDS011;53150;48.296;16.452;2022-12-22T15:10:09;37.30;;;16.58;;
66353;SDS011;53150;48.296;16.452;2022-12-22T15:12:35;37.65;;;18.05;;
66353;SDS011;53150;48.296;16.452;2022-12-22T15:15:01;35.80;;;15.73;;
66353;SDS011;53150;48.296;16.452;2022-12-22T15:17:27;32.85;;;16.15;;
66353;SDS011;53150;48.296;16.452;2022-12-22T15:19:54;32.78;;;15.50;;
66353;SDS011;53150;48.296;16.452;2022-12-22T15:22:21;34.83;;;16.48;;
66353;SDS011;53150;48.296;16.452;2022-12-22T15:24:47;32.45;;;15.85;;
66353;SDS011;53150;48.296;16.452;2022-12-22T15:27:13;30.92;;;15.90;;
66353;SDS011;53150;48.296;16.452;2022-12-22T15:29:39;34.55;;;17.00;;
66353;SDS011;53150;48.296;16.452;2022-12-22T15:32:12;35.03;;;17.08;;
66353;SDS011;53150;48.296;16.452;2022-12-22T15:34:38;36.72;;;16.27;;
66353;SDS011;53150;48.296;16.452;2022-12-22T15:37:04;35.47;;;17.33;;
66353;SDS011;53150;48.296;16.452;2022-12-22T15:39:30;33.55;;;15.90;;
66353;SDS011;53150;48.296;16.452;2022-12-22T15:41:57;34.50;;;18.88;;
66353;SDS011;53150;48.296;16.452;2022-12-22T15:44:23;39.55;;;19.67;;
66353;SDS011;53150;48.296;16.452;2022-12-22T15:46:55;36.05;;;17.08;;
66353;SDS011;53150;48.296;16.452;2022-12-22T15:51:48;31.70;;;17.10;;
66353;SDS011;53150;48.296;16.452;2022-12-22T15:54:16;34.10;;;16.23;;
66353;SDS011;53150;48.296;16.452;2022-12-22T15:56:43;35.05;;;18.35;;
66353;SDS011;53150;48.296;16.452;2022-12-22T15:59:13;37.15;;;17.60;;
66353;SDS011;53150;48.296;16.452;2022-12-22T16:01:41;40.30;;;21.60;;
66353;SDS011;53150;48.296;16.452;2022-12-22T16:04:07;38.65;;;20.27;;
66353;SDS011;53150;48.296;16.452;2022-12-22T16:06:33;39.63;;;23.70;;
66353;SDS011;53150;48.296;16.452;2022-12-22T16:08:59;44.58;;;24.92;;
66353;SDS011;53150;48.296;16.452;2022-12-22T16:11:25;35.85;;;21.08;;
66353;SDS011;53150;48.296;16.452;2022-12-22T16:13:51;39.35;;;18.10;;
66353;SDS011;53150;48.296;16.452;2022-12-22T16:16:17;36.60;;;19.92;;
66353;SDS011;53150;48.296;16.452;2022-12-22T16:18:43;33.42;;;17.05;;
66353;SDS011;53150;48.296;16.452;2022-12-22T16:21:14;30.73;;;17.88;;
66353;SDS011;53150;48.296;16.452;2022-12-22T16:23:42;35.70;;;19.23;;
66353;SDS011;53150;48.296;16.452;2022-12-22T16:26:10;31.10;;;16.52;;
66353;SDS011;53150;48.296;16.452;2022-12-22T16:28:40;29.13;;;14.25;;
66353;SDS011;53150;48.296;16.452;2022-12-22T16:31:09;24.33;;;13.73;;
66353;SDS011;53150;48.296;16.452;2022-12-22T16:33:39;28.85;;;14.07;;
66353;SDS011;53150;48.296;16.452;2022-12-22T16:36:06;25.02;;;12.77;;
66353;SDS011;53150;48.296;16.452;2022-12-22T16:38:33;31.40;;;15.00;;